Terminal Aerodrome Forecast
Issued by NWS Wilmington, OH

Current Version | Previous Version | Text Only | Print | Product List | Glossary Off
Versions: 1 2 3 4 5 6 7 8 9 10 11 12 13 14 15 16 17 18 19

764
FTUS41 KILN 261736
TAFDAY
TAF
KDAY 261736Z 2618/2718 24012KT P6SM BKN040
     FM262200 18007KT P6SM VCSH BKN040
     FM270100 12007KT P6SM -SHRA VCTS BKN035CB
      TEMPO 2702/2704 2SM TSRA OVC025CB
     FM270700 31008KT P6SM VCSH OVC008
     FM271300 27008KT P6SM SCT025=

USA.gov is the U.S. government's official web portal to all federal, state and local government web resources and services.